Terminal Aerodrome Forecast
Issued by NWS

Home | Current Version | Previous Version | Text Only | Print | Product List | Glossary On
Versions: 1 2 3 4 5 6 7 8 9 10 11 12 13 14 15 16 17 18 19 20 21 22 23 24 25 26 27 28 29 30 31 32 33 34 35 36 37
000
FTUS44 KHGX 211132
TAFCXO
TAF
KCXO 211132Z 2112/2212 05003KT P6SM OVC015
     FM211600 VRB03KT P6SM BKN015
     FM212300 17006KT P6SM FEW025 SCT050
     FM220300 17005KT P6SM SCT015 BKN025
     FM220600 17004KT 5SM BR OVC015
      TEMPO 2208/2212 2SM BR OVC007=

USA.gov is the U.S. government's official web portal to all federal, state and local government web resources and services.